createdAt,value
2018-09-21T00:01:08.026Z,8.40
2018-09-21T00:03:36.277Z,7.90
2018-09-21T00:06:04.514Z,10.30
2018-09-21T00:08:32.738Z,13.60
2018-09-21T00:11:01.010Z,12.20
2018-09-21T00:13:29.235Z,8.27
2018-09-21T00:15:57.450Z,11.70
2018-09-21T00:18:25.702Z,9.57
2018-09-21T00:20:53.946Z,8.93
2018-09-21T00:23:22.174Z,12.53
2018-09-21T00:25:50.397Z,13.10
2018-09-21T00:28:18.615Z,11.27
2018-09-21T00:30:46.829Z,13.40
2018-09-21T00:33:15.098Z,13.77
2018-09-21T00:35:43.315Z,12.53
2018-09-21T00:38:11.527Z,12.63
2018-09-21T00:40:39.759Z,12.80
2018-09-21T00:43:08.011Z,19.03
2018-09-21T00:45:36.219Z,11.83
2018-09-21T00:48:04.479Z,10.07
2018-09-21T00:50:32.735Z,10.37
2018-09-21T00:53:00.938Z,11.13
2018-09-21T00:55:29.178Z,10.57
2018-09-21T00:57:57.406Z,10.60
2018-09-21T01:00:25.610Z,12.63
2018-09-21T01:02:53.853Z,9.37
2018-09-21T01:05:22.062Z,11.33
2018-09-21T01:07:50.270Z,11.57
2018-09-21T01:10:18.522Z,10.83
2018-09-21T01:12:46.742Z,12.83
2018-09-21T01:15:14.998Z,11.30
2018-09-21T01:17:43.202Z,11.73
2018-09-21T01:20:11.455Z,9.70
2018-09-21T01:22:39.685Z,10.10
2018-09-21T01:25:07.909Z,13.77
2018-09-21T01:27:36.118Z,11.37
2018-09-21T01:30:04.469Z,17.33
2018-09-21T01:32:32.692Z,14.90
2018-09-21T01:35:00.906Z,12.63
2018-09-21T01:37:29.172Z,10.20
2018-09-21T01:39:57.387Z,10.87
2018-09-21T01:42:25.603Z,8.93
2018-09-21T01:44:53.843Z,12.27
2018-09-21T01:47:22.085Z,11.30
2018-09-21T01:49:50.381Z,9.07
2018-09-21T01:52:18.631Z,11.43
2018-09-21T01:54:46.837Z,10.67
2018-09-21T01:57:15.074Z,10.57
2018-09-21T01:59:43.313Z,10.67
2018-09-21T02:02:11.538Z,12.40
2018-09-21T02:04:40.802Z,11.67
2018-09-21T02:07:10.523Z,10.80
2018-09-21T02:09:39.065Z,11.03
2018-09-21T02:12:07.258Z,11.17
2018-09-21T02:14:35.698Z,9.83
2018-09-21T02:17:04.297Z,12.43
2018-09-21T02:19:32.599Z,9.83
2018-09-21T02:22:00.875Z,9.93
2018-09-21T02:24:29.097Z,11.80
2018-09-21T02:26:57.390Z,14.03
2018-09-21T02:29:25.622Z,13.50
2018-09-21T02:31:53.843Z,11.90
2018-09-21T02:34:22.053Z,10.30
2018-09-21T02:36:50.297Z,13.27
2018-09-21T02:39:18.576Z,11.57
2018-09-21T02:41:46.768Z,10.93
2018-09-21T02:44:14.993Z,10.33
2018-09-21T02:46:43.225Z,12.70
2018-09-21T02:49:11.451Z,10.70
2018-09-21T02:51:39.690Z,13.83
2018-09-21T02:54:07.947Z,11.50
2018-09-21T02:56:36.826Z,12.53
2018-09-21T02:59:05.184Z,8.00
2018-09-21T03:01:33.398Z,12.33
2018-09-21T03:04:01.615Z,10.97
2018-09-21T03:06:29.833Z,11.37
2018-09-21T03:08:58.037Z,10.30
2018-09-21T03:11:26.262Z,12.47
2018-09-21T03:13:54.511Z,9.70
2018-09-21T03:16:22.801Z,16.80
2018-09-21T03:18:51.023Z,12.00
2018-09-21T03:21:19.346Z,10.80
2018-09-21T03:23:47.566Z,10.00
2018-09-21T03:26:15.782Z,12.53
2018-09-21T03:28:44.001Z,9.53
2018-09-21T03:31:12.226Z,11.53
2018-09-21T03:33:40.459Z,8.77
2018-09-21T03:36:08.711Z,12.80
2018-09-21T03:38:36.925Z,10.47
2018-09-21T03:41:05.193Z,10.23
2018-09-21T03:43:33.426Z,11.90
2018-09-21T03:46:01.629Z,14.03
2018-09-21T03:48:29.855Z,12.73
2018-09-21T03:50:58.094Z,12.30
2018-09-21T03:53:26.313Z,11.17
2018-09-21T03:55:54.530Z,14.27
2018-09-21T03:58:22.773Z,13.30
2018-09-21T04:00:50.993Z,11.57
2018-09-21T04:03:19.234Z,11.90
2018-09-21T04:05:47.454Z,11.23
2018-09-21T04:08:15.691Z,10.00
2018-09-21T04:10:43.930Z,12.83
2018-09-21T04:13:12.147Z,11.17
2018-09-21T04:15:40.354Z,11.63
2018-09-21T04:18:08.597Z,13.70
2018-09-21T04:20:36.813Z,12.03
2018-09-21T04:23:05.109Z,13.23
2018-09-21T04:25:33.566Z,11.07
2018-09-21T04:28:01.809Z,15.47
2018-09-21T04:30:30.023Z,14.77
2018-09-21T04:32:58.751Z,10.33
2018-09-21T04:35:27.266Z,12.97
2018-09-21T04:37:55.675Z,12.13
2018-09-21T04:40:23.907Z,8.70
2018-09-21T04:42:52.193Z,12.40
2018-09-21T04:45:20.413Z,13.37
2018-09-21T04:47:48.638Z,12.87
2018-09-21T04:50:16.890Z,15.10
2018-09-21T04:52:45.090Z,12.80
2018-09-21T04:55:13.294Z,15.27
2018-09-21T04:57:41.514Z,9.70
2018-09-21T05:00:10.302Z,10.63
2018-09-21T05:02:38.526Z,19.13
2018-09-21T05:05:06.831Z,11.30
2018-09-21T05:07:35.050Z,12.87
2018-09-21T05:10:03.290Z,14.43
2018-09-21T05:12:31.505Z,8.93
2018-09-21T05:14:59.710Z,13.77
2018-09-21T05:17:27.989Z,9.27
2018-09-21T05:19:56.399Z,12.47
2018-09-21T05:22:24.598Z,13.30
2018-09-21T05:24:52.872Z,12.87
2018-09-21T05:27:21.101Z,10.47
2018-09-21T05:29:49.314Z,14.13
2018-09-21T05:32:17.630Z,14.30
2018-09-21T05:34:46.022Z,12.90
2018-09-21T05:37:14.070Z,12.97
2018-09-21T05:39:42.554Z,11.83
2018-09-21T05:42:10.786Z,12.97
2018-09-21T05:44:39.001Z,12.77
2018-09-21T05:47:07.271Z,10.13
2018-09-21T05:49:35.462Z,9.83
2018-09-21T05:52:03.679Z,11.47
2018-09-21T05:54:31.890Z,12.87
2018-09-21T05:57:00.098Z,14.47
2018-09-21T05:59:28.371Z,12.10
2018-09-21T06:01:56.627Z,12.13
2018-09-21T06:04:24.841Z,16.40
2018-09-21T06:06:53.061Z,15.43
2018-09-21T06:09:21.258Z,10.80
2018-09-21T06:11:49.501Z,14.53
2018-09-21T06:14:17.709Z,12.10
2018-09-21T06:16:45.950Z,16.20
2018-09-21T06:19:14.184Z,13.33
2018-09-21T06:21:42.434Z,13.57
2018-09-21T06:24:10.662Z,12.33
2018-09-21T06:26:39.005Z,9.17
2018-09-21T06:29:07.222Z,12.00
2018-09-21T06:31:35.433Z,12.17
2018-09-21T06:34:03.723Z,10.43
2018-09-21T06:36:31.944Z,12.87
2018-09-21T06:39:00.166Z,11.40
2018-09-21T06:41:28.398Z,10.83
2018-09-21T06:43:56.630Z,15.77
2018-09-21T06:46:24.844Z,11.87
2018-09-21T06:48:53.066Z,12.23
2018-09-21T06:51:21.305Z,12.83
2018-09-21T06:53:49.542Z,12.80
2018-09-21T06:56:17.793Z,12.50
2018-09-21T06:58:46.022Z,9.03
2018-09-21T07:01:14.247Z,9.53
2018-09-21T07:03:42.539Z,13.10
2018-09-21T07:06:10.766Z,11.80
2018-09-21T07:08:38.978Z,8.17
2018-09-21T07:11:07.371Z,13.20
2018-09-21T07:13:35.586Z,6.03
2018-09-21T07:16:03.792Z,10.13
2018-09-21T07:18:32.064Z,10.17
2018-09-21T07:21:00.350Z,9.80
2018-09-21T07:23:28.606Z,9.17
2018-09-21T07:25:56.862Z,8.50
2018-09-21T07:28:25.090Z,11.63
2018-09-21T07:30:53.435Z,7.47
2018-09-21T07:33:21.774Z,13.17
2018-09-21T07:35:49.999Z,6.60
2018-09-21T07:38:18.198Z,7.20
2018-09-21T07:40:46.422Z,6.87
2018-09-21T07:43:14.662Z,7.57
2018-09-21T07:45:42.866Z,9.70
2018-09-21T07:48:11.127Z,9.50
2018-09-21T07:50:39.398Z,12.83
2018-09-21T07:53:07.578Z,6.03
2018-09-21T07:55:35.804Z,8.60
2018-09-21T07:58:04.098Z,9.27
2018-09-21T08:00:32.315Z,7.87
2018-09-21T08:03:00.526Z,9.40
2018-09-21T08:05:33.863Z,8.23
2018-09-21T08:08:03.362Z,7.73
2018-09-21T08:10:31.613Z,8.33
2018-09-21T08:13:00.402Z,8.80
2018-09-21T08:15:28.970Z,10.40
2018-09-21T08:17:57.210Z,7.80
2018-09-21T08:20:25.647Z,5.90
2018-09-21T08:22:53.987Z,10.30
2018-09-21T08:25:22.206Z,7.90
2018-09-21T08:27:50.449Z,8.43
2018-09-21T08:30:18.766Z,8.97
2018-09-21T08:32:46.977Z,12.93
2018-09-21T08:35:15.207Z,8.37
2018-09-21T08:37:43.478Z,6.97
2018-09-21T08:40:11.685Z,8.33
2018-09-21T08:42:39.937Z,14.20
2018-09-21T08:45:08.418Z,4.67
2018-09-21T08:47:36.739Z,12.77
2018-09-21T08:50:06.618Z,9.13
2018-09-21T08:52:34.846Z,6.67
2018-09-21T08:55:03.115Z,6.63
2018-09-21T08:57:31.361Z,5.97
2018-09-21T08:59:59.654Z,6.43
2018-09-21T09:02:27.891Z,8.37
2018-09-21T09:04:56.759Z,7.33
2018-09-21T09:07:24.973Z,6.90
2018-09-21T09:09:53.218Z,8.17
2018-09-21T09:12:21.474Z,8.33
2018-09-21T09:14:49.786Z,7.70
2018-09-21T09:17:18.038Z,6.03
2018-09-21T09:19:46.294Z,6.03
2018-09-21T09:22:14.554Z,7.07
2018-09-21T09:27:10.342Z,7.63
2018-09-21T09:29:38.586Z,7.17
2018-09-21T09:32:06.846Z,7.97
2018-09-21T09:34:35.125Z,7.73
2018-09-21T09:37:03.528Z,8.73
2018-09-21T09:39:31.730Z,4.97
2018-09-21T09:41:59.942Z,9.67
2018-09-21T09:44:28.166Z,8.27
2018-09-21T09:46:56.443Z,7.13
2018-09-21T09:49:24.733Z,13.80
2018-09-21T09:51:53.015Z,15.30
2018-09-21T09:54:21.608Z,6.30
2018-09-21T09:56:49.912Z,7.57
2018-09-21T09:59:18.138Z,7.27
2018-09-21T10:01:46.636Z,12.53
2018-09-21T10:04:14.874Z,5.47
2018-09-21T10:06:43.121Z,7.80
2018-09-21T10:09:12.213Z,7.40
2018-09-21T10:11:41.100Z,7.27
2018-09-21T10:14:09.798Z,12.20
2018-09-21T10:16:38.054Z,6.77
2018-09-21T10:19:06.350Z,10.70
2018-09-21T10:21:34.659Z,7.27
2018-09-21T10:24:02.893Z,9.93
2018-09-21T10:26:31.111Z,8.70
2018-09-21T10:28:59.334Z,9.37
2018-09-21T10:31:27.589Z,8.17
2018-09-21T10:33:55.883Z,7.63
2018-09-21T10:36:25.214Z,7.67
2018-09-21T10:38:53.415Z,7.30
2018-09-21T10:41:21.631Z,6.53
2018-09-21T10:43:49.864Z,8.80
2018-09-21T10:46:18.078Z,10.87
2018-09-21T10:48:46.323Z,8.87
2018-09-21T10:51:14.542Z,8.77
2018-09-21T10:53:42.796Z,7.43
2018-09-21T10:56:11.391Z,8.40
2018-09-21T10:58:39.631Z,9.57
2018-09-21T11:01:07.872Z,11.83
2018-09-21T11:03:36.454Z,8.20
2018-09-21T11:06:04.927Z,11.23
2018-09-21T11:08:35.014Z,6.90
2018-09-21T11:11:03.222Z,7.17
2018-09-21T11:13:31.422Z,9.73
2018-09-21T11:15:59.675Z,14.13
2018-09-21T11:18:27.930Z,31.10
2018-09-21T11:20:56.303Z,8.67
2018-09-21T11:23:24.554Z,11.27
2018-09-21T11:25:52.797Z,10.40
2018-09-21T11:28:21.030Z,9.87
2018-09-21T11:30:49.334Z,8.20
2018-09-21T11:33:17.562Z,16.57
2018-09-21T11:35:45.794Z,8.13
2018-09-21T11:38:14.049Z,7.93
2018-09-21T11:40:42.263Z,9.60
2018-09-21T11:43:10.506Z,9.47
2018-09-21T11:45:38.762Z,8.13
2018-09-21T11:48:06.990Z,9.50
2018-09-21T11:50:35.227Z,12.03
2018-09-21T11:53:03.485Z,9.70
2018-09-21T11:55:31.722Z,8.00
2018-09-21T11:57:59.955Z,9.87
2018-09-21T12:00:29.074Z,13.57
2018-09-21T12:02:57.303Z,11.17
2018-09-21T12:05:25.518Z,11.87
2018-09-21T12:07:53.758Z,10.07
2018-09-21T12:10:21.984Z,11.00
2018-09-21T12:12:50.192Z,9.67
2018-09-21T12:15:18.449Z,11.00
2018-09-21T12:17:46.669Z,10.03
2018-09-21T12:20:14.909Z,9.10
2018-09-21T12:22:43.210Z,9.30
2018-09-21T12:25:11.377Z,10.70
2018-09-21T12:27:39.614Z,12.87
2018-09-21T12:30:07.906Z,12.67
2018-09-21T12:32:36.120Z,12.87
2018-09-21T12:35:04.367Z,8.63
2018-09-21T12:37:32.626Z,12.10
2018-09-21T12:40:00.846Z,7.77
2018-09-21T12:42:29.100Z,11.73
2018-09-21T12:44:57.418Z,9.93
2018-09-21T12:47:25.639Z,10.80
2018-09-21T12:49:53.846Z,8.83
2018-09-21T12:52:22.086Z,15.17
2018-09-21T12:54:50.311Z,11.53
2018-09-21T12:57:18.535Z,10.40
2018-09-21T12:59:46.777Z,9.40
2018-09-21T13:02:14.984Z,8.20
2018-09-21T13:04:43.221Z,8.40
2018-09-21T13:07:11.537Z,9.13
2018-09-21T13:09:39.749Z,5.80
2018-09-21T13:12:07.978Z,6.63
2018-09-21T13:14:36.269Z,3.13
2018-09-21T13:17:04.476Z,5.27
2018-09-21T13:19:33.781Z,2.97
2018-09-21T13:22:02.056Z,9.60
2018-09-21T13:24:30.259Z,5.10
2018-09-21T13:26:58.491Z,3.37
2018-09-21T13:29:26.734Z,3.67
2018-09-21T13:31:55.215Z,6.33
2018-09-21T13:34:23.426Z,6.23
2018-09-21T13:36:51.732Z,9.33
2018-09-21T13:39:19.963Z,6.33
2018-09-21T13:41:48.165Z,7.83
2018-09-21T13:44:16.414Z,5.67
2018-09-21T13:46:44.625Z,3.97
2018-09-21T13:49:12.842Z,4.43
2018-09-21T13:51:41.076Z,5.83
2018-09-21T13:54:09.353Z,7.70
2018-09-21T13:56:37.567Z,8.80
2018-09-21T13:59:05.965Z,7.67
2018-09-21T14:01:34.211Z,8.60
2018-09-21T14:04:02.425Z,4.63
2018-09-21T14:06:30.883Z,4.73
2018-09-21T14:08:59.115Z,4.40
2018-09-21T14:11:27.318Z,4.43
2018-09-21T14:13:55.555Z,3.70
2018-09-21T14:16:23.773Z,5.83
2018-09-21T14:18:52.011Z,3.63
2018-09-21T14:21:20.275Z,4.07
2018-09-21T14:23:48.522Z,4.00
2018-09-21T14:26:16.728Z,4.73
2018-09-21T14:28:45.033Z,4.20
2018-09-21T14:31:13.234Z,10.13
2018-09-21T14:33:41.441Z,5.30
2018-09-21T14:36:09.722Z,4.30
2018-09-21T14:38:37.983Z,4.43
2018-09-21T14:41:06.618Z,5.27
2018-09-21T14:43:34.870Z,5.83
2018-09-21T14:46:03.085Z,2.10
2018-09-21T14:48:31.294Z,5.33
2018-09-21T14:50:59.525Z,4.60
2018-09-21T14:53:27.762Z,2.57
2018-09-21T14:55:55.988Z,5.73
2018-09-21T14:58:24.229Z,5.10
2018-09-21T15:00:52.433Z,5.07
2018-09-21T15:03:20.674Z,3.30
2018-09-21T15:05:48.907Z,5.60
2018-09-21T15:08:17.177Z,1.20
2018-09-21T15:10:45.422Z,3.63
2018-09-21T15:13:13.626Z,4.83
2018-09-21T15:15:41.845Z,2.67
2018-09-21T15:18:10.069Z,3.97
2018-09-21T15:20:38.320Z,3.63
2018-09-21T15:23:06.562Z,2.73
2018-09-21T15:25:34.794Z,6.43
2018-09-21T15:28:03.053Z,2.83
2018-09-21T15:30:31.278Z,4.50
2018-09-21T15:32:59.607Z,3.40
2018-09-21T15:35:27.872Z,4.23
2018-09-21T15:37:56.377Z,5.57
2018-09-21T15:40:24.590Z,4.53
2018-09-21T15:42:52.843Z,3.77
2018-09-21T15:45:21.070Z,2.77
2018-09-21T15:47:49.315Z,4.10
2018-09-21T15:50:17.586Z,2.67
2018-09-21T15:52:45.877Z,7.87
2018-09-21T15:55:14.079Z,4.70
2018-09-21T15:57:42.299Z,2.57
2018-09-21T16:00:10.542Z,3.90
2018-09-21T16:02:38.754Z,3.10
2018-09-21T16:05:07.078Z,4.23
2018-09-21T16:07:35.389Z,9.43
2018-09-21T16:10:03.621Z,2.77
2018-09-21T16:12:31.862Z,1.80
2018-09-21T16:15:00.101Z,3.27
2018-09-21T16:17:28.313Z,3.03
2018-09-21T16:19:56.564Z,4.80
2018-09-21T16:22:24.801Z,3.53
2018-09-21T16:24:53.130Z,4.40
2018-09-21T16:27:21.390Z,5.67
2018-09-21T16:29:49.598Z,6.83
2018-09-21T16:32:17.801Z,6.20
2018-09-21T16:34:46.038Z,5.60
2018-09-21T16:37:14.293Z,3.50
2018-09-21T16:39:42.521Z,4.67
2018-09-21T16:42:10.763Z,2.97
2018-09-21T16:44:39.051Z,5.43
2018-09-21T16:47:07.382Z,6.43
2018-09-21T16:49:35.646Z,4.53
2018-09-21T16:52:03.874Z,5.20
2018-09-21T16:54:32.094Z,6.17
2018-09-21T16:57:00.381Z,3.40
2018-09-21T16:59:28.651Z,2.63
2018-09-21T17:01:56.861Z,5.90
2018-09-21T17:04:25.199Z,4.37
2018-09-21T17:06:53.332Z,4.50
2018-09-21T17:09:22.597Z,3.33
2018-09-21T17:11:50.861Z,8.83
2018-09-21T17:14:19.150Z,3.40
2018-09-21T17:16:47.358Z,5.87
2018-09-21T17:19:15.654Z,3.27
2018-09-21T17:21:44.083Z,4.43
2018-09-21T17:24:12.294Z,5.37
2018-09-21T17:26:40.554Z,3.33
2018-09-21T17:29:08.775Z,3.00
2018-09-21T17:31:37.093Z,3.20
2018-09-21T17:34:05.348Z,4.77
2018-09-21T17:36:33.588Z,3.77
2018-09-21T17:39:01.908Z,2.13
2018-09-21T17:41:30.190Z,1.60
2018-09-21T17:43:58.460Z,7.03
2018-09-21T17:46:26.767Z,6.07
2018-09-21T17:48:55.299Z,4.73
2018-09-21T17:51:23.543Z,5.43
2018-09-21T17:53:51.922Z,4.07
2018-09-21T17:56:20.130Z,3.87
2018-09-21T17:58:48.406Z,3.00
2018-09-21T18:01:16.982Z,2.50
2018-09-21T18:03:46.654Z,3.07
2018-09-21T18:06:14.961Z,3.87
2018-09-21T18:08:43.169Z,4.33
2018-09-21T18:11:11.501Z,3.23
2018-09-21T18:13:40.810Z,1.30
2018-09-21T18:16:09.121Z,5.40
2018-09-21T18:18:37.329Z,4.97
2018-09-21T18:21:05.583Z,5.13
2018-09-21T18:23:33.839Z,5.17
2018-09-21T18:26:02.116Z,5.17
2018-09-21T18:28:30.483Z,5.60
2018-09-21T18:30:58.742Z,6.73
2018-09-21T18:33:27.000Z,8.27
2018-09-21T18:35:55.243Z,5.33
2018-09-21T18:38:23.656Z,2.80
2018-09-21T18:40:51.869Z,5.03
2018-09-21T18:43:20.101Z,7.03
2018-09-21T18:45:48.321Z,5.47
2018-09-21T18:48:16.550Z,4.87
2018-09-21T18:50:45.057Z,4.07
2018-09-21T18:53:13.229Z,5.13
2018-09-21T18:55:41.454Z,5.83
2018-09-21T18:58:09.709Z,3.13
2018-09-21T19:00:37.954Z,7.03
2018-09-21T19:03:06.278Z,4.43
2018-09-21T19:05:34.528Z,4.47
2018-09-21T19:08:02.771Z,5.80
2018-09-21T19:10:31.779Z,6.00
2018-09-21T19:13:00.038Z,5.23
2018-09-21T19:15:28.258Z,3.07
2018-09-21T19:17:56.507Z,5.17
2018-09-21T19:20:24.773Z,4.70
2018-09-21T19:22:53.038Z,4.37
2018-09-21T19:25:21.282Z,7.23
2018-09-21T19:27:49.523Z,6.13
2018-09-21T19:30:17.754Z,6.10
2018-09-21T19:32:45.990Z,8.53
2018-09-21T19:35:14.219Z,3.70
2018-09-21T19:37:42.441Z,3.93
2018-09-21T19:40:10.361Z,6.27
2018-09-21T19:42:38.592Z,6.60
2018-09-21T19:45:07.086Z,4.63
2018-09-21T19:47:35.270Z,4.33
2018-09-21T19:50:03.911Z,5.87
2018-09-21T19:52:32.167Z,5.43
2018-09-21T19:55:00.403Z,8.87
2018-09-21T19:57:28.613Z,6.53
2018-09-21T19:59:56.901Z,4.50
2018-09-21T20:02:25.131Z,7.50
2018-09-21T20:04:53.381Z,6.20
2018-09-21T20:07:21.602Z,4.17
2018-09-21T20:09:49.839Z,3.67
2018-09-21T20:12:18.071Z,3.73
2018-09-21T20:14:46.382Z,5.50
2018-09-21T20:17:14.610Z,6.17
2018-09-21T20:19:42.819Z,5.40
2018-09-21T20:22:11.512Z,2.87
2018-09-21T20:24:39.732Z,6.63
2018-09-21T20:27:07.964Z,7.47
2018-09-21T20:29:37.427Z,5.53
2018-09-21T20:32:11.022Z,8.80
2018-09-21T20:34:39.339Z,7.03
2018-09-21T20:37:07.635Z,5.50
2018-09-21T20:39:35.906Z,7.40
2018-09-21T20:42:04.204Z,8.43
2018-09-21T20:44:32.475Z,6.27
2018-09-21T20:47:00.701Z,8.90
2018-09-21T20:49:28.931Z,7.83
2018-09-21T20:51:57.239Z,8.77
2018-09-21T20:54:25.401Z,7.43
2018-09-21T20:56:53.825Z,4.70
2018-09-21T20:59:22.197Z,6.07
2018-09-21T21:01:50.369Z,8.77
2018-09-21T21:04:18.613Z,8.93
2018-09-21T21:06:46.846Z,5.23
2018-09-21T21:09:15.054Z,7.63
2018-09-21T21:11:43.319Z,9.90
2018-09-21T21:14:11.581Z,8.47
2018-09-21T21:16:39.809Z,8.33
2018-09-21T21:19:08.118Z,4.73
2018-09-21T21:21:37.443Z,9.53
2018-09-21T21:24:05.686Z,7.97
2018-09-21T21:26:34.054Z,10.77
2018-09-21T21:29:02.290Z,7.60
2018-09-21T21:31:30.514Z,6.70
2018-09-21T21:33:58.757Z,11.13
2018-09-21T21:36:27.014Z,11.20
2018-09-21T21:38:55.286Z,7.83
2018-09-21T21:41:23.563Z,6.57
2018-09-21T21:43:51.793Z,9.83
2018-09-21T21:46:20.013Z,11.50
2018-09-21T21:48:48.263Z,8.77
2018-09-21T21:51:16.504Z,8.00
2018-09-21T21:53:44.807Z,6.80
2018-09-21T21:56:13.061Z,11.03
2018-09-21T21:58:41.420Z,12.13
2018-09-21T22:01:14.949Z,11.83
2018-09-21T22:03:43.238Z,12.40
2018-09-21T22:06:11.610Z,7.97
2018-09-21T22:08:39.852Z,9.50
2018-09-21T22:13:17.707Z,6.90
2018-09-21T22:15:46.011Z,9.77
2018-09-21T22:18:14.237Z,7.23
2018-09-21T22:20:42.474Z,7.00
2018-09-21T22:23:10.722Z,6.20
2018-09-21T22:25:38.979Z,10.33
2018-09-21T22:28:07.250Z,9.63
2018-09-21T22:30:35.486Z,11.23
2018-09-21T22:33:03.714Z,6.77
2018-09-21T22:35:31.905Z,8.07
2018-09-21T22:38:00.150Z,9.23
2018-09-21T22:40:28.381Z,11.07
2018-09-21T22:42:56.588Z,11.47
2018-09-21T22:45:24.822Z,8.53
2018-09-21T22:47:53.066Z,9.83
2018-09-21T22:50:21.289Z,7.37
2018-09-21T22:52:49.533Z,11.07
2018-09-21T22:55:17.760Z,8.70
2018-09-21T22:57:45.999Z,8.03
2018-09-21T23:00:14.275Z,10.23
2018-09-21T23:02:42.509Z,5.87
2018-09-21T23:05:10.726Z,10.73
2018-09-21T23:07:38.981Z,8.80
2018-09-21T23:10:07.326Z,8.07
2018-09-21T23:12:35.549Z,8.33
2018-09-21T23:15:03.803Z,7.60
2018-09-21T23:17:32.032Z,9.43
2018-09-21T23:20:00.236Z,11.07
2018-09-21T23:22:28.518Z,11.13
2018-09-21T23:24:56.733Z,10.00
2018-09-21T23:27:24.942Z,8.67
2018-09-21T23:29:53.182Z,7.40
2018-09-21T23:32:21.399Z,9.07
2018-09-21T23:34:49.618Z,12.10
2018-09-21T23:37:17.876Z,9.13
2018-09-21T23:39:46.106Z,12.73
2018-09-21T23:42:14.334Z,6.33
2018-09-21T23:44:42.578Z,10.33
2018-09-21T23:47:10.809Z,11.50
2018-09-21T23:49:39.021Z,8.87
2018-09-21T23:52:07.261Z,13.60
2018-09-21T23:54:35.492Z,6.30
2018-09-21T23:57:03.726Z,13.07
2018-09-21T23:59:31.998Z,7.73
